sensor_id;sensor_type;location;lat;lon;timestamp;temperature;humidity
30174;DHT22;16985;50.814;8.530;2022-09-09T00:01:23;14.10;99.90
30174;DHT22;16985;50.814;8.530;2022-09-09T00:04:13;14.40;99.90
30174;DHT22;16985;50.814;8.530;2022-09-09T00:12:36;14.50;99.90
30174;DHT22;16985;50.814;8.530;2022-09-09T00:15:19;14.40;99.90
30174;DHT22;16985;50.814;8.530;2022-09-09T00:17:56;14.40;99.90
30174;DHT22;16985;50.814;8.530;2022-09-09T00:23:24;14.40;99.90
30174;DHT22;16985;50.814;8.530;2022-09-09T00:26:26;14.40;99.90
30174;DHT22;16985;50.814;8.530;2022-09-09T00:31:37;14.30;99.90
30174;DHT22;16985;50.814;8.530;2022-09-09T00:36:40;14.30;99.90
30174;DHT22;16985;50.814;8.530;2022-09-09T00:39:23;14.30;99.90
30174;DHT22;16985;50.814;8.530;2022-09-09T00:53:38;14.10;99.90
30174;DHT22;16985;50.814;8.530;2022-09-09T00:56:22;13.90;99.90
30174;DHT22;16985;50.814;8.530;2022-09-09T01:01:30;14.10;99.90
30174;DHT22;16985;50.814;8.530;2022-09-09T01:03:56;14.00;99.90
30174;DHT22;16985;50.814;8.530;2022-09-09T01:06:34;14.00;99.90
30174;DHT22;16985;50.814;8.530;2022-09-09T01:12:15;14.00;99.90
30174;DHT22;16985;50.814;8.530;2022-09-09T01:14:56;13.90;99.90
30174;DHT22;16985;50.814;8.530;2022-09-09T01:17:33;13.90;99.90
30174;DHT22;16985;50.814;8.530;2022-09-09T01:20:23;13.90;99.90
30174;DHT22;16985;50.814;8.530;2022-09-09T01:26:02;13.80;99.90
30174;DHT22;16985;50.814;8.530;2022-09-09T01:28:29;13.80;99.90
30174;DHT22;16985;50.814;8.530;2022-09-09T01:31:03;13.80;99.90
30174;DHT22;16985;50.814;8.530;2022-09-09T01:33:36;13.80;99.90
30174;DHT22;16985;50.814;8.530;2022-09-09T01:36:13;13.80;99.90
30174;DHT22;16985;50.814;8.530;2022-09-09T01:38:47;13.80;99.90
30174;DHT22;16985;50.814;8.530;2022-09-09T01:41:14;13.80;99.90
30174;DHT22;16985;50.814;8.530;2022-09-09T01:43:53;13.80;99.90
30174;DHT22;16985;50.814;8.530;2022-09-09T01:46:21;13.70;99.90
30174;DHT22;16985;50.814;8.530;2022-09-09T01:48:52;13.70;99.90
30174;DHT22;16985;50.814;8.530;2022-09-09T01:51:19;13.70;99.90
30174;DHT22;16985;50.814;8.530;2022-09-09T01:53:45;13.70;99.90
30174;DHT22;16985;50.814;8.530;2022-09-09T01:59:31;13.70;99.90
30174;DHT22;16985;50.814;8.530;2022-09-09T02:02:17;13.70;99.90
30174;DHT22;16985;50.814;8.530;2022-09-09T02:04:59;13.70;99.90
30174;DHT22;16985;50.814;8.530;2022-09-09T02:07:49;13.70;99.90
30174;DHT22;16985;50.814;8.530;2022-09-09T02:10:35;13.70;99.90
30174;DHT22;16985;50.814;8.530;2022-09-09T02:13:20;13.70;99.90
30174;DHT22;16985;50.814;8.530;2022-09-09T02:15:57;13.70;99.90
30174;DHT22;16985;50.814;8.530;2022-09-09T02:21:34;13.70;99.90
30174;DHT22;16985;50.814;8.530;2022-09-09T02:24:04;13.70;99.90
30174;DHT22;16985;50.814;8.530;2022-09-09T02:26:40;13.60;99.90
30174;DHT22;16985;50.814;8.530;2022-09-09T02:29:13;13.60;99.90
30174;DHT22;16985;50.814;8.530;2022-09-09T02:31:42;13.70;99.90
30174;DHT22;16985;50.814;8.530;2022-09-09T02:34:14;13.70;99.90
30174;DHT22;16985;50.814;8.530;2022-09-09T02:36:43;13.70;99.90
30174;DHT22;16985;50.814;8.530;2022-09-09T02:39:10;13.70;99.90
30174;DHT22;16985;50.814;8.530;2022-09-09T02:41:40;13.70;99.90
30174;DHT22;16985;50.814;8.530;2022-09-09T02:44:15;13.70;99.90
30174;DHT22;16985;50.814;8.530;2022-09-09T02:52:48;13.70;99.90
30174;DHT22;16985;50.814;8.530;2022-09-09T02:55:39;13.80;99.90
30174;DHT22;16985;50.814;8.530;2022-09-09T02:58:17;13.80;99.90
30174;DHT22;16985;50.814;8.530;2022-09-09T03:00:50;13.80;99.90
30174;DHT22;16985;50.814;8.530;2022-09-09T03:03:18;13.80;99.90
30174;DHT22;16985;50.814;8.530;2022-09-09T03:05:47;13.80;99.90
30174;DHT22;16985;50.814;8.530;2022-09-09T03:08:13;13.80;99.90
30174;DHT22;16985;50.814;8.530;2022-09-09T03:10:40;13.80;99.90
30174;DHT22;16985;50.814;8.530;2022-09-09T03:13:06;13.80;99.90
30174;DHT22;16985;50.814;8.530;2022-09-09T03:15:35;13.90;99.90
30174;DHT22;16985;50.814;8.530;2022-09-09T03:18:01;13.90;99.90
30174;DHT22;16985;50.814;8.530;2022-09-09T03:20:28;13.90;99.90
30174;DHT22;16985;50.814;8.530;2022-09-09T03:22:56;13.90;99.90
30174;DHT22;16985;50.814;8.530;2022-09-09T03:25:23;13.90;99.90
30174;DHT22;16985;50.814;8.530;2022-09-09T03:27:52;13.90;99.90
30174;DHT22;16985;50.814;8.530;2022-09-09T03:30:25;14.00;99.90
30174;DHT22;16985;50.814;8.530;2022-09-09T03:32:54;14.00;99.90
30174;DHT22;16985;50.814;8.530;2022-09-09T03:35:22;14.00;99.90
30174;DHT22;16985;50.814;8.530;2022-09-09T03:37:47;14.00;99.90
30174;DHT22;16985;50.814;8.530;2022-09-09T03:40:14;14.00;99.90
30174;DHT22;16985;50.814;8.530;2022-09-09T03:42:41;14.10;99.90
30174;DHT22;16985;50.814;8.530;2022-09-09T03:45:09;14.10;99.90
30174;DHT22;16985;50.814;8.530;2022-09-09T03:47:37;14.10;99.90
30174;DHT22;16985;50.814;8.530;2022-09-09T03:50:07;14.10;99.90
30174;DHT22;16985;50.814;8.530;2022-09-09T03:52:37;14.10;99.90
30174;DHT22;16985;50.814;8.530;2022-09-09T03:55:06;14.10;99.90
30174;DHT22;16985;50.814;8.530;2022-09-09T03:57:34;14.10;99.90
30174;DHT22;16985;50.814;8.530;2022-09-09T04:00:04;14.10;99.90
30174;DHT22;16985;50.814;8.530;2022-09-09T04:02:41;14.20;99.90
30174;DHT22;16985;50.814;8.530;2022-09-09T04:05:09;14.10;99.90
30174;DHT22;16985;50.814;8.530;2022-09-09T04:07:37;14.20;99.90
30174;DHT22;16985;50.814;8.530;2022-09-09T04:10:03;14.30;99.90
30174;DHT22;16985;50.814;8.530;2022-09-09T04:12:29;14.20;99.90
30174;DHT22;16985;50.814;8.530;2022-09-09T04:14:56;14.20;99.90
30174;DHT22;16985;50.814;8.530;2022-09-09T04:17:22;14.10;99.90
30174;DHT22;16985;50.814;8.530;2022-09-09T04:19:48;14.20;99.90
30174;DHT22;16985;50.814;8.530;2022-09-09T04:22:14;14.20;99.90
30174;DHT22;16985;50.814;8.530;2022-09-09T04:24:39;14.20;99.90
30174;DHT22;16985;50.814;8.530;2022-09-09T04:27:06;14.20;99.90
30174;DHT22;16985;50.814;8.530;2022-09-09T04:29:34;14.20;99.90
30174;DHT22;16985;50.814;8.530;2022-09-09T04:32:00;14.20;99.90
30174;DHT22;16985;50.814;8.530;2022-09-09T04:34:26;14.20;99.90
30174;DHT22;16985;50.814;8.530;2022-09-09T04:36:53;14.30;99.90
30174;DHT22;16985;50.814;8.530;2022-09-09T04:39:20;14.20;99.90
30174;DHT22;16985;50.814;8.530;2022-09-09T04:41:45;14.30;99.90
30174;DHT22;16985;50.814;8.530;2022-09-09T04:44:12;14.30;99.90
30174;DHT22;16985;50.814;8.530;2022-09-09T04:46:38;14.30;99.90
30174;DHT22;16985;50.814;8.530;2022-09-09T04:49:04;14.30;99.90
30174;DHT22;16985;50.814;8.530;2022-09-09T04:51:32;14.30;99.90
30174;DHT22;16985;50.814;8.530;2022-09-09T04:53:58;14.30;99.90
30174;DHT22;16985;50.814;8.530;2022-09-09T04:56:24;14.30;99.90
30174;DHT22;16985;50.814;8.530;2022-09-09T04:58:55;14.30;99.90
30174;DHT22;16985;50.814;8.530;2022-09-09T05:01:25;14.30;99.90
30174;DHT22;16985;50.814;8.530;2022-09-09T05:03:56;14.30;99.90
30174;DHT22;16985;50.814;8.530;2022-09-09T05:06:23;14.30;99.90
30174;DHT22;16985;50.814;8.530;2022-09-09T05:08:55;14.30;99.90
30174;DHT22;16985;50.814;8.530;2022-09-09T05:11:31;14.30;99.90
30174;DHT22;16985;50.814;8.530;2022-09-09T05:14:02;14.30;99.90
30174;DHT22;16985;50.814;8.530;2022-09-09T05:16:30;14.30;99.90
30174;DHT22;16985;50.814;8.530;2022-09-09T05:18:56;14.40;99.90
30174;DHT22;16985;50.814;8.530;2022-09-09T05:21:23;14.40;99.90
30174;DHT22;16985;50.814;8.530;2022-09-09T05:23:54;14.40;99.90
30174;DHT22;16985;50.814;8.530;2022-09-09T05:26:21;14.40;99.90
30174;DHT22;16985;50.814;8.530;2022-09-09T05:28:49;14.40;99.90
30174;DHT22;16985;50.814;8.530;2022-09-09T05:31:17;14.50;99.90
30174;DHT22;16985;50.814;8.530;2022-09-09T05:33:46;14.50;99.90
30174;DHT22;16985;50.814;8.530;2022-09-09T05:36:16;14.60;99.90
30174;DHT22;16985;50.814;8.530;2022-09-09T05:38:44;14.60;99.90
30174;DHT22;16985;50.814;8.530;2022-09-09T05:41:12;14.70;99.90
30174;DHT22;16985;50.814;8.530;2022-09-09T05:43:41;14.60;99.90
30174;DHT22;16985;50.814;8.530;2022-09-09T05:46:12;14.70;99.90
30174;DHT22;16985;50.814;8.530;2022-09-09T05:48:44;14.70;99.90
30174;DHT22;16985;50.814;8.530;2022-09-09T05:51:17;14.70;99.90
30174;DHT22;16985;50.814;8.530;2022-09-09T05:53:48;14.70;99.90
30174;DHT22;16985;50.814;8.530;2022-09-09T05:56:22;14.70;99.90
30174;DHT22;16985;50.814;8.530;2022-09-09T05:58:51;14.80;99.90
30174;DHT22;16985;50.814;8.530;2022-09-09T06:04:00;14.80;99.90
30174;DHT22;16985;50.814;8.530;2022-09-09T06:06:31;14.80;99.90
30174;DHT22;16985;50.814;8.530;2022-09-09T06:09:05;14.80;99.90
30174;DHT22;16985;50.814;8.530;2022-09-09T06:11:35;14.90;99.90
30174;DHT22;16985;50.814;8.530;2022-09-09T06:14:03;14.90;99.90
30174;DHT22;16985;50.814;8.530;2022-09-09T06:16:31;14.90;99.90
30174;DHT22;16985;50.814;8.530;2022-09-09T06:19:04;14.90;99.90
30174;DHT22;16985;50.814;8.530;2022-09-09T06:21:35;14.90;99.90
30174;DHT22;16985;50.814;8.530;2022-09-09T06:24:07;14.90;99.90
30174;DHT22;16985;50.814;8.530;2022-09-09T06:26:35;15.00;99.90
30174;DHT22;16985;50.814;8.530;2022-09-09T06:29:11;15.00;99.90
30174;DHT22;16985;50.814;8.530;2022-09-09T06:31:38;15.00;99.90
30174;DHT22;16985;50.814;8.530;2022-09-09T06:34:14;15.10;99.90
30174;DHT22;16985;50.814;8.530;2022-09-09T06:36:44;15.10;99.90
30174;DHT22;16985;50.814;8.530;2022-09-09T06:39:11;15.10;99.90
30174;DHT22;16985;50.814;8.530;2022-09-09T06:41:38;15.10;99.90
30174;DHT22;16985;50.814;8.530;2022-09-09T06:44:08;15.10;99.90
30174;DHT22;16985;50.814;8.530;2022-09-09T06:46:39;15.20;99.90
30174;DHT22;16985;50.814;8.530;2022-09-09T06:49:08;15.20;99.90
30174;DHT22;16985;50.814;8.530;2022-09-09T06:51:36;15.20;99.90
30174;DHT22;16985;50.814;8.530;2022-09-09T06:54:09;15.20;99.90
30174;DHT22;16985;50.814;8.530;2022-09-09T06:56:37;15.30;99.90
30174;DHT22;16985;50.814;8.530;2022-09-09T06:59:10;15.30;99.90
30174;DHT22;16985;50.814;8.530;2022-09-09T07:01:42;15.30;99.90
30174;DHT22;16985;50.814;8.530;2022-09-09T07:04:17;15.40;99.90
30174;DHT22;16985;50.814;8.530;2022-09-09T07:06:45;15.40;99.90
30174;DHT22;16985;50.814;8.530;2022-09-09T07:09:16;15.50;99.90
30174;DHT22;16985;50.814;8.530;2022-09-09T07:11:50;15.50;99.90
30174;DHT22;16985;50.814;8.530;2022-09-09T07:14:21;15.50;99.90
30174;DHT22;16985;50.814;8.530;2022-09-09T07:16:51;15.60;99.90
30174;DHT22;16985;50.814;8.530;2022-09-09T07:19:18;15.70;99.90
30174;DHT22;16985;50.814;8.530;2022-09-09T07:21:46;15.60;99.90
30174;DHT22;16985;50.814;8.530;2022-09-09T07:24:15;15.70;99.90
30174;DHT22;16985;50.814;8.530;2022-09-09T07:26:42;15.70;99.90
30174;DHT22;16985;50.814;8.530;2022-09-09T07:29:10;15.80;99.90
30174;DHT22;16985;50.814;8.530;2022-09-09T07:31:39;15.80;99.90
30174;DHT22;16985;50.814;8.530;2022-09-09T07:34:09;15.80;99.90
30174;DHT22;16985;50.814;8.530;2022-09-09T07:36:37;15.90;99.90
30174;DHT22;16985;50.814;8.530;2022-09-09T07:39:11;15.90;99.90
30174;DHT22;16985;50.814;8.530;2022-09-09T07:41:47;16.00;99.90
30174;DHT22;16985;50.814;8.530;2022-09-09T07:44:21;16.00;99.90
30174;DHT22;16985;50.814;8.530;2022-09-09T07:46:58;16.10;99.90
30174;DHT22;16985;50.814;8.530;2022-09-09T07:49:30;16.20;99.90
30174;DHT22;16985;50.814;8.530;2022-09-09T07:51:57;16.20;99.90
30174;DHT22;16985;50.814;8.530;2022-09-09T07:54:23;16.30;99.90
30174;DHT22;16985;50.814;8.530;2022-09-09T07:56:52;16.30;99.90
30174;DHT22;16985;50.814;8.530;2022-09-09T07:59:20;16.40;99.90
30174;DHT22;16985;50.814;8.530;2022-09-09T08:01:51;16.50;99.90
30174;DHT22;16985;50.814;8.530;2022-09-09T08:04:24;16.50;99.90
30174;DHT22;16985;50.814;8.530;2022-09-09T08:06:53;16.60;99.90
30174;DHT22;16985;50.814;8.530;2022-09-09T08:09:22;16.70;99.90
30174;DHT22;16985;50.814;8.530;2022-09-09T08:11:52;16.70;99.90
30174;DHT22;16985;50.814;8.530;2022-09-09T08:14:19;16.80;99.90
30174;DHT22;16985;50.814;8.530;2022-09-09T08:16:47;16.80;99.90
30174;DHT22;16985;50.814;8.530;2022-09-09T08:19:17;16.90;99.90
30174;DHT22;16985;50.814;8.530;2022-09-09T08:21:45;16.90;99.90
30174;DHT22;16985;50.814;8.530;2022-09-09T08:24:13;16.90;99.90
30174;DHT22;16985;50.814;8.530;2022-09-09T08:26:51;17.00;99.90
30174;DHT22;16985;50.814;8.530;2022-09-09T08:29:21;17.00;99.90
30174;DHT22;16985;50.814;8.530;2022-09-09T08:31:49;17.00;99.90
30174;DHT22;16985;50.814;8.530;2022-09-09T08:34:17;17.00;99.90
30174;DHT22;16985;50.814;8.530;2022-09-09T08:36:48;17.00;98.40
30174;DHT22;16985;50.814;8.530;2022-09-09T08:39:16;17.00;97.40
30174;DHT22;16985;50.814;8.530;2022-09-09T08:42:12;17.00;96.70
30174;DHT22;16985;50.814;8.530;2022-09-09T08:45:05;17.10;96.50
30174;DHT22;16985;50.814;8.530;2022-09-09T08:47:55;17.10;95.40
30174;DHT22;16985;50.814;8.530;2022-09-09T08:50:35;17.20;94.50
30174;DHT22;16985;50.814;8.530;2022-09-09T08:53:27;17.20;94.20
30174;DHT22;16985;50.814;8.530;2022-09-09T08:55:58;17.30;94.20
30174;DHT22;16985;50.814;8.530;2022-09-09T08:58:35;17.40;94.20
30174;DHT22;16985;50.814;8.530;2022-09-09T09:07:31;17.80;93.50
30174;DHT22;16985;50.814;8.530;2022-09-09T09:12:51;18.10;92.30
30174;DHT22;16985;50.814;8.530;2022-09-09T09:15:36;18.10;91.80
30174;DHT22;16985;50.814;8.530;2022-09-09T09:18:04;18.20;91.60
30174;DHT22;16985;50.814;8.530;2022-09-09T09:21:00;18.30;91.60
30174;DHT22;16985;50.814;8.530;2022-09-09T09:23:40;18.40;91.70
30174;DHT22;16985;50.814;8.530;2022-09-09T09:26:34;18.60;91.20
30174;DHT22;16985;50.814;8.530;2022-09-09T09:29:14;18.70;90.10
30174;DHT22;16985;50.814;8.530;2022-09-09T09:31:48;18.90;88.90
30174;DHT22;16985;50.814;8.530;2022-09-09T09:34:21;19.00;88.50
30174;DHT22;16985;50.814;8.530;2022-09-09T09:36:59;19.10;87.80
30174;DHT22;16985;50.814;8.530;2022-09-09T09:39:32;19.30;87.10
30174;DHT22;16985;50.814;8.530;2022-09-09T09:42:11;19.30;86.50
30174;DHT22;16985;50.814;8.530;2022-09-09T09:44:40;19.50;86.00
30174;DHT22;16985;50.814;8.530;2022-09-09T09:47:13;19.60;85.40
30174;DHT22;16985;50.814;8.530;2022-09-09T09:49:59;19.60;85.30
30174;DHT22;16985;50.814;8.530;2022-09-09T09:52:30;19.80;85.30
30174;DHT22;16985;50.814;8.530;2022-09-09T09:55:03;19.90;84.80
30174;DHT22;16985;50.814;8.530;2022-09-09T09:57:33;20.10;84.00
30174;DHT22;16985;50.814;8.530;2022-09-09T10:02:45;20.20;81.70
30174;DHT22;16985;50.814;8.530;2022-09-09T10:05:25;20.30;81.70
30174;DHT22;16985;50.814;8.530;2022-09-09T10:08:05;20.30;81.50
30174;DHT22;16985;50.814;8.530;2022-09-09T10:16:30;20.60;78.80
30174;DHT22;16985;50.814;8.530;2022-09-09T10:19:31;20.70;79.10
30174;DHT22;16985;50.814;8.530;2022-09-09T10:22:20;20.70;78.10
30174;DHT22;16985;50.814;8.530;2022-09-09T10:27:52;20.50;76.70
30174;DHT22;16985;50.814;8.530;2022-09-09T10:30:23;20.40;76.80
30174;DHT22;16985;50.814;8.530;2022-09-09T10:33:07;20.30;77.20
30174;DHT22;16985;50.814;8.530;2022-09-09T10:35:53;20.30;78.20
30174;DHT22;16985;50.814;8.530;2022-09-09T10:38:43;20.30;78.10
30174;DHT22;16985;50.814;8.530;2022-09-09T10:51:58;20.00;79.70
30174;DHT22;16985;50.814;8.530;2022-09-09T10:55:10;19.80;82.60
30174;DHT22;16985;50.814;8.530;2022-09-09T10:57:50;19.60;83.60
30174;DHT22;16985;50.814;8.530;2022-09-09T11:00:26;19.40;85.50
30174;DHT22;16985;50.814;8.530;2022-09-09T11:03:03;19.20;86.50
30174;DHT22;16985;50.814;8.530;2022-09-09T11:05:43;19.20;87.50
30174;DHT22;16985;50.814;8.530;2022-09-09T11:08:28;19.40;90.10
30174;DHT22;16985;50.814;8.530;2022-09-09T11:11:33;19.50;91.40
30174;DHT22;16985;50.814;8.530;2022-09-09T11:14:21;19.70;91.20
30174;DHT22;16985;50.814;8.530;2022-09-09T11:17:18;19.90;91.00
30174;DHT22;16985;50.814;8.530;2022-09-09T11:19:47;20.20;90.50
30174;DHT22;16985;50.814;8.530;2022-09-09T11:22:32;20.30;87.10
30174;DHT22;16985;50.814;8.530;2022-09-09T11:25:29;20.50;86.20
30174;DHT22;16985;50.814;8.530;2022-09-09T11:36:49;21.20;81.50
30174;DHT22;16985;50.814;8.530;2022-09-09T11:42:20;21.60;80.00
30174;DHT22;16985;50.814;8.530;2022-09-09T11:44:46;21.80;77.80
30174;DHT22;16985;50.814;8.530;2022-09-09T11:47:31;21.90;76.80
30174;DHT22;16985;50.814;8.530;2022-09-09T11:52:45;21.90;76.40
30174;DHT22;16985;50.814;8.530;2022-09-09T11:55:34;21.90;77.20
30174;DHT22;16985;50.814;8.530;2022-09-09T11:58:17;22.00;77.80
30174;DHT22;16985;50.814;8.530;2022-09-09T12:00:48;22.20;76.50
30174;DHT22;16985;50.814;8.530;2022-09-09T12:03:48;22.40;76.20
30174;DHT22;16985;50.814;8.530;2022-09-09T12:06:27;22.60;76.30
30174;DHT22;16985;50.814;8.530;2022-09-09T12:09:09;22.80;75.70
30174;DHT22;16985;50.814;8.530;2022-09-09T12:11:42;23.00;72.90
30174;DHT22;16985;50.814;8.530;2022-09-09T12:14:35;23.10;71.00
30174;DHT22;16985;50.814;8.530;2022-09-09T12:19:40;23.50;69.50
30174;DHT22;16985;50.814;8.530;2022-09-09T12:24:48;23.60;67.50
30174;DHT22;16985;50.814;8.530;2022-09-09T12:27:28;23.50;67.00
30174;DHT22;16985;50.814;8.530;2022-09-09T12:30:02;23.40;66.80
30174;DHT22;16985;50.814;8.530;2022-09-09T12:32:30;23.40;66.70
30174;DHT22;16985;50.814;8.530;2022-09-09T12:37:52;23.20;65.60
30174;DHT22;16985;50.814;8.530;2022-09-09T12:40:33;23.00;64.90
30174;DHT22;16985;50.814;8.530;2022-09-09T12:43:19;22.90;64.60
30174;DHT22;16985;50.814;8.530;2022-09-09T12:45:48;22.70;64.60
30174;DHT22;16985;50.814;8.530;2022-09-09T12:48:18;22.60;64.50
30174;DHT22;16985;50.814;8.530;2022-09-09T12:50:48;22.40;64.60
30174;DHT22;16985;50.814;8.530;2022-09-09T12:53:36;22.40;65.10
30174;DHT22;16985;50.814;8.530;2022-09-09T12:56:07;22.20;65.90
30174;DHT22;16985;50.814;8.530;2022-09-09T12:58:36;22.10;66.50
30174;DHT22;16985;50.814;8.530;2022-09-09T13:01:04;22.00;67.20
30174;DHT22;16985;50.814;8.530;2022-09-09T13:03:31;21.90;67.20
30174;DHT22;16985;50.814;8.530;2022-09-09T13:06:09;21.70;67.30
30174;DHT22;16985;50.814;8.530;2022-09-09T13:08:37;21.70;67.80
30174;DHT22;16985;50.814;8.530;2022-09-09T13:11:07;21.60;67.00
30174;DHT22;16985;50.814;8.530;2022-09-09T13:13:38;21.60;67.40
30174;DHT22;16985;50.814;8.530;2022-09-09T13:16:20;21.70;67.10
30174;DHT22;16985;50.814;8.530;2022-09-09T13:18:49;21.80;66.90
30174;DHT22;16985;50.814;8.530;2022-09-09T13:21:16;21.90;66.40
30174;DHT22;16985;50.814;8.530;2022-09-09T13:23:42;22.10;65.90
30174;DHT22;16985;50.814;8.530;2022-09-09T13:26:22;22.30;65.30
30174;DHT22;16985;50.814;8.530;2022-09-09T13:28:50;22.40;64.80
30174;DHT22;16985;50.814;8.530;2022-09-09T13:31:28;22.40;63.30
30174;DHT22;16985;50.814;8.530;2022-09-09T13:33:56;22.50;63.20
30174;DHT22;16985;50.814;8.530;2022-09-09T13:36:29;22.50;63.20
30174;DHT22;16985;50.814;8.530;2022-09-09T13:38:58;22.50;64.10
30174;DHT22;16985;50.814;8.530;2022-09-09T13:41:36;22.70;64.00
30174;DHT22;16985;50.814;8.530;2022-09-09T13:44:14;22.70;64.30
30174;DHT22;16985;50.814;8.530;2022-09-09T13:46:44;22.90;64.60
30174;DHT22;16985;50.814;8.530;2022-09-09T13:51:44;23.00;62.20
30174;DHT22;16985;50.814;8.530;2022-09-09T13:54:14;22.90;61.60
30174;DHT22;16985;50.814;8.530;2022-09-09T13:56:41;22.80;62.00
30174;DHT22;16985;50.814;8.530;2022-09-09T13:59:15;22.70;62.20
30174;DHT22;16985;50.814;8.530;2022-09-09T14:01:42;22.60;62.90
30174;DHT22;16985;50.814;8.530;2022-09-09T14:04:08;22.50;63.40
30174;DHT22;16985;50.814;8.530;2022-09-09T14:06:36;22.30;63.80
30174;DHT22;16985;50.814;8.530;2022-09-09T14:09:12;22.20;64.40
30174;DHT22;16985;50.814;8.530;2022-09-09T14:11:44;22.00;65.10
30174;DHT22;16985;50.814;8.530;2022-09-09T14:14:13;21.90;65.90
30174;DHT22;16985;50.814;8.530;2022-09-09T14:16:40;21.80;66.60
30174;DHT22;16985;50.814;8.530;2022-09-09T14:19:09;22.50;66.80
30174;DHT22;16985;50.814;8.530;2022-09-09T14:21:35;22.00;66.50
30174;DHT22;16985;50.814;8.530;2022-09-09T14:24:01;22.00;65.70
30174;DHT22;16985;50.814;8.530;2022-09-09T14:26:27;22.00;65.20
30174;DHT22;16985;50.814;8.530;2022-09-09T14:28:54;21.90;65.40
30174;DHT22;16985;50.814;8.530;2022-09-09T14:31:19;21.80;66.30
30174;DHT22;16985;50.814;8.530;2022-09-09T14:33:46;21.90;66.60
30174;DHT22;16985;50.814;8.530;2022-09-09T14:36:12;22.00;66.40
30174;DHT22;16985;50.814;8.530;2022-09-09T14:38:38;22.00;66.20
30174;DHT22;16985;50.814;8.530;2022-09-09T14:41:12;22.10;66.20
30174;DHT22;16985;50.814;8.530;2022-09-09T14:43:42;22.10;65.50
30174;DHT22;16985;50.814;8.530;2022-09-09T14:46:14;22.10;65.20
30174;DHT22;16985;50.814;8.530;2022-09-09T14:48:40;22.10;65.50
30174;DHT22;16985;50.814;8.530;2022-09-09T14:51:08;21.90;66.30
30174;DHT22;16985;50.814;8.530;2022-09-09T14:53:35;21.90;66.20
30174;DHT22;16985;50.814;8.530;2022-09-09T14:56:21;22.00;66.50
30174;DHT22;16985;50.814;8.530;2022-09-09T14:58:48;22.30;66.60
30174;DHT22;16985;50.814;8.530;2022-09-09T15:01:19;22.10;66.20
30174;DHT22;16985;50.814;8.530;2022-09-09T15:03:57;22.20;65.70
30174;DHT22;16985;50.814;8.530;2022-09-09T15:06:25;22.40;65.20
30174;DHT22;16985;50.814;8.530;2022-09-09T15:08:52;22.50;64.00
30174;DHT22;16985;50.814;8.530;2022-09-09T15:11:27;22.50;63.20
30174;DHT22;16985;50.814;8.530;2022-09-09T15:13:54;22.40;63.30
30174;DHT22;16985;50.814;8.530;2022-09-09T15:16:22;22.40;63.60
30174;DHT22;16985;50.814;8.530;2022-09-09T15:18:52;22.40;63.90
30174;DHT22;16985;50.814;8.530;2022-09-09T15:21:21;22.40;63.80
30174;DHT22;16985;50.814;8.530;2022-09-09T15:23:49;22.30;64.00
30174;DHT22;16985;50.814;8.530;2022-09-09T15:26:15;22.20;64.80
30174;DHT22;16985;50.814;8.530;2022-09-09T15:28:43;22.20;65.40
30174;DHT22;16985;50.814;8.530;2022-09-09T15:33:51;21.70;66.90
30174;DHT22;16985;50.814;8.530;2022-09-09T15:36:25;21.50;69.30
30174;DHT22;16985;50.814;8.530;2022-09-09T15:38:51;21.40;71.70
30174;DHT22;16985;50.814;8.530;2022-09-09T15:41:20;21.20;72.70
30174;DHT22;16985;50.814;8.530;2022-09-09T15:43:51;21.00;73.50
30174;DHT22;16985;50.814;8.530;2022-09-09T15:46:46;20.90;73.90
30174;DHT22;16985;50.814;8.530;2022-09-09T15:49:22;20.60;72.80
30174;DHT22;16985;50.814;8.530;2022-09-09T15:52:00;20.50;72.90
30174;DHT22;16985;50.814;8.530;2022-09-09T15:54:32;20.40;73.10
30174;DHT22;16985;50.814;8.530;2022-09-09T15:57:02;20.30;73.30
30174;DHT22;16985;50.814;8.530;2022-09-09T15:59:30;20.20;73.70
30174;DHT22;16985;50.814;8.530;2022-09-09T16:01:57;20.00;74.00
30174;DHT22;16985;50.814;8.530;2022-09-09T16:04:25;19.90;74.40
30174;DHT22;16985;50.814;8.530;2022-09-09T16:06:53;19.90;74.60
30174;DHT22;16985;50.814;8.530;2022-09-09T16:09:21;19.80;75.00
30174;DHT22;16985;50.814;8.530;2022-09-09T16:11:47;19.70;75.40
30174;DHT22;16985;50.814;8.530;2022-09-09T16:14:14;19.70;75.70
30174;DHT22;16985;50.814;8.530;2022-09-09T16:16:41;19.60;75.90
30174;DHT22;16985;50.814;8.530;2022-09-09T16:19:09;19.50;76.40
30174;DHT22;16985;50.814;8.530;2022-09-09T16:21:40;19.40;76.60
30174;DHT22;16985;50.814;8.530;2022-09-09T16:24:12;19.40;77.60
30174;DHT22;16985;50.814;8.530;2022-09-09T16:26:49;19.40;78.50
30174;DHT22;16985;50.814;8.530;2022-09-09T16:29:18;19.30;79.60
30174;DHT22;16985;50.814;8.530;2022-09-09T16:31:48;19.30;80.80
30174;DHT22;16985;50.814;8.530;2022-09-09T16:34:15;19.90;81.80
30174;DHT22;16985;50.814;8.530;2022-09-09T16:36:43;19.20;82.10
30174;DHT22;16985;50.814;8.530;2022-09-09T16:39:11;19.10;83.00
30174;DHT22;16985;50.814;8.530;2022-09-09T16:41:42;19.10;84.50
30174;DHT22;16985;50.814;8.530;2022-09-09T16:44:10;19.10;84.90
30174;DHT22;16985;50.814;8.530;2022-09-09T16:46:42;19.00;84.60
30174;DHT22;16985;50.814;8.530;2022-09-09T16:49:11;18.80;84.30
30174;DHT22;16985;50.814;8.530;2022-09-09T16:51:46;18.70;84.60
30174;DHT22;16985;50.814;8.530;2022-09-09T16:54:14;18.60;84.80
30174;DHT22;16985;50.814;8.530;2022-09-09T16:56:43;18.50;85.00
30174;DHT22;16985;50.814;8.530;2022-09-09T16:59:12;18.40;85.50
30174;DHT22;16985;50.814;8.530;2022-09-09T17:01:40;18.30;85.80
30174;DHT22;16985;50.814;8.530;2022-09-09T17:04:28;18.20;86.10
30174;DHT22;16985;50.814;8.530;2022-09-09T17:06:56;18.10;86.40
30174;DHT22;16985;50.814;8.530;2022-09-09T17:09:23;18.10;86.50
30174;DHT22;16985;50.814;8.530;2022-09-09T17:11:56;18.10;86.70
30174;DHT22;16985;50.814;8.530;2022-09-09T17:14:22;18.00;86.70
30174;DHT22;16985;50.814;8.530;2022-09-09T17:16:49;18.00;86.90
30174;DHT22;16985;50.814;8.530;2022-09-09T17:19:16;18.00;86.80
30174;DHT22;16985;50.814;8.530;2022-09-09T17:21:45;17.90;87.00
30174;DHT22;16985;50.814;8.530;2022-09-09T17:24:12;17.90;87.10
30174;DHT22;16985;50.814;8.530;2022-09-09T17:26:38;17.80;87.20
30174;DHT22;16985;50.814;8.530;2022-09-09T17:29:12;17.80;87.50
30174;DHT22;16985;50.814;8.530;2022-09-09T17:31:38;17.70;88.00
30174;DHT22;16985;50.814;8.530;2022-09-09T17:34:04;17.70;88.40
30174;DHT22;16985;50.814;8.530;2022-09-09T17:36:32;17.60;89.10
30174;DHT22;16985;50.814;8.530;2022-09-09T17:39:00;17.60;89.30
30174;DHT22;16985;50.814;8.530;2022-09-09T17:41:35;17.60;89.80
30174;DHT22;16985;50.814;8.530;2022-09-09T17:44:02;17.50;90.10
30174;DHT22;16985;50.814;8.530;2022-09-09T17:46:40;17.50;90.30
30174;DHT22;16985;50.814;8.530;2022-09-09T17:49:09;17.40;90.80
30174;DHT22;16985;50.814;8.530;2022-09-09T17:51:37;17.40;91.10